Time;durP1;ratioP1;P1;durP2;ratioP2;P2;SDS_P1;SDS_P2;PMS_P1;PMS_P2;Temp;Humidity;BMP_temperature;BMP_pressure;BME280_temperature;BME280_humidity;BME280_pressure;Samples;Min_cycle;Max_cycle;Signal;HPM_P1;HPM_P2
2023/04/19 00:00:58;;;;;;;1.90;1.70;;;18.00;67.70;;;;;;4993426;28;20046;-79
2023/04/19 00:03:24;;;;;;;1.90;1.70;;;18.00;67.70;;;;;;5012108;28;20054;-79
2023/04/19 00:05:52;;;;;;;2.05;1.95;;;18.00;67.70;;;;;;4997123;28;20569;-79
2023/04/19 00:08:18;;;;;;;2.45;2.10;;;18.00;67.80;;;;;;4991012;28;20154;-79
2023/04/19 00:10:43;;;;;;;2.10;2.00;;;18.00;67.80;;;;;;4990035;28;20538;-79
2023/04/19 00:13:09;;;;;;;2.28;2.10;;;18.00;67.80;;;;;;4990595;28;20057;-79
2023/04/19 00:15:35;;;;;;;1.77;1.67;;;18.00;67.80;;;;;;4990983;28;20042;-80
2023/04/19 00:18:00;;;;;;;2.17;1.98;;;18.00;67.80;;;;;;4979498;28;20373;-79
2023/04/19 00:20:26;;;;;;;1.98;1.88;;;18.00;67.80;;;;;;4990982;28;20031;-80
2023/04/19 00:22:51;;;;;;;1.80;1.70;;;18.00;67.80;;;;;;5019587;28;20132;-80
2023/04/19 00:25:17;;;;;;;2.03;1.92;;;18.00;67.80;;;;;;4997878;28;20549;-79
2023/04/19 00:27:43;;;;;;;2.10;2.00;;;17.90;67.60;;;;;;5007240;28;20070;-80
2023/04/19 00:30:08;;;;;;;1.98;1.88;;;17.90;67.70;;;;;;5012452;28;20038;-79
2023/04/19 00:32:34;;;;;;;1.70;1.60;;;17.90;67.70;;;;;;5020205;28;20046;-79
2023/04/19 00:35:00;;;;;;;1.90;1.80;;;17.90;67.70;;;;;;5002242;28;20562;-79
2023/04/19 00:37:25;;;;;;;1.73;1.63;;;18.00;67.80;;;;;;4986578;28;20053;-79
2023/04/19 00:39:51;;;;;;;2.08;1.98;;;17.90;68.50;;;;;;4987677;28;20093;-79
2023/04/19 00:42:16;;;;;;;1.90;1.80;;;17.90;67.70;;;;;;4977028;28;20414;-80
2023/04/19 00:44:42;;;;;;;1.60;1.50;;;17.90;67.60;;;;;;5011898;28;20054;-79
2023/04/19 00:47:08;;;;;;;1.70;1.60;;;17.90;67.60;;;;;;4993476;28;20042;-79
2023/04/19 00:49:33;;;;;;;1.73;1.67;;;17.90;67.60;;;;;;4999295;28;20765;-79
2023/04/19 00:51:59;;;;;;;1.70;1.60;;;17.90;67.70;;;;;;4989682;28;20049;-80
2023/04/19 00:54:25;;;;;;;1.77;1.67;;;17.90;67.70;;;;;;5005188;28;20058;-79
2023/04/19 00:56:50;;;;;;;1.70;1.60;;;17.90;67.70;;;;;;4991051;28;20042;-79
2023/04/19 00:59:16;;;;;;;2.22;2.03;;;17.90;67.70;;;;;;5004625;28;20690;-79
2023/04/19 01:01:41;;;;;;;1.70;1.60;;;17.90;67.80;;;;;;5007225;28;20049;-78
2023/04/19 01:04:07;;;;;;;1.73;1.70;;;17.90;67.70;;;;;;4977722;28;20046;-80
2023/04/19 01:06:34;;;;;;;2.60;1.50;;;17.90;67.70;;;;;;4991903;28;20073;-80
2023/04/19 01:08:59;;;;;;;1.60;1.50;;;17.90;67.80;;;;;;4995039;28;20078;-79
2023/04/19 01:11:26;;;;;;;1.77;1.67;;;17.90;67.80;;;;;;5009999;28;20100;-79
2023/04/19 01:13:52;;;;;;;1.58;1.48;;;17.90;67.90;;;;;;4978616;28;20407;-79
2023/04/19 01:16:17;;;;;;;1.90;1.80;;;17.90;67.90;;;;;;5010966;28;20503;-79
2023/04/19 01:18:43;;;;;;;2.58;1.70;;;17.90;68.70;;;;;;5006344;28;20061;-78
2023/04/19 01:21:09;;;;;;;1.50;1.40;;;17.90;67.80;;;;;;5007274;28;20054;-79
2023/04/19 01:23:35;;;;;;;1.73;1.63;;;17.90;67.80;;;;;;5006561;28;20592;-80
2023/04/19 01:26:01;;;;;;;1.42;1.40;;;17.80;67.80;;;;;;5005439;28;20086;-79
2023/04/19 01:28:26;;;;;;;2.00;1.90;;;17.80;67.80;;;;;;4996727;28;20108;-79
2023/04/19 01:30:55;;;;;;;1.63;1.63;;;17.80;67.80;;;;;;5004632;28;20499;-79
2023/04/19 01:33:21;;;;;;;1.80;1.70;;;17.90;67.90;;;;;;4979389;28;20381;-79
2023/04/19 01:35:47;;;;;;;1.65;1.55;;;17.80;67.80;;;;;;5011142;28;20100;-79
2023/04/19 01:38:12;;;;;;;1.83;1.73;;;17.80;67.80;;;;;;4970210;28;20082;-80
2023/04/19 01:40:38;;;;;;;1.70;1.60;;;17.80;67.80;;;;;;4990480;28;20053;-79
2023/04/19 01:43:05;;;;;;;1.45;1.45;;;17.80;67.80;;;;;;4994366;28;20041;-79
2023/04/19 01:45:32;;;;;;;1.80;1.70;;;17.80;67.80;;;;;;4985263;28;20085;-80
2023/04/19 01:48:00;;;;;;;1.60;1.60;;;17.80;67.80;;;;;;5010812;28;20503;-79
2023/04/19 01:50:26;;;;;;;1.90;1.80;;;17.80;67.70;;;;;;4995005;28;20438;-80
2023/04/19 01:52:51;;;;;;;1.80;1.70;;;17.80;67.80;;;;;;5009588;28;20057;-80
2023/04/19 01:55:17;;;;;;;1.60;1.50;;;17.80;67.70;;;;;;4988556;28;20096;-80
2023/04/19 01:57:43;;;;;;;1.95;1.85;;;17.80;67.70;;;;;;4987816;28;20610;-78
2023/04/19 02:00:09;;;;;;;1.58;1.48;;;17.80;67.70;;;;;;4979622;28;20136;-80
2023/04/19 02:02:36;;;;;;;1.40;1.40;;;17.80;67.80;;;;;;5009670;28;20076;-80
2023/04/19 02:05:02;;;;;;;1.60;1.50;;;17.80;67.80;;;;;;5006943;28;20030;-79
2023/04/19 02:07:28;;;;;;;1.85;1.75;;;17.80;67.70;;;;;;5009109;28;20038;-79
2023/04/19 02:09:54;;;;;;;2.10;2.00;;;17.80;67.80;;;;;;5003136;28;20428;-79
2023/04/19 02:12:19;;;;;;;1.90;1.80;;;17.80;67.80;;;;;;5004804;28;20133;-80
2023/04/19 02:14:45;;;;;;;1.40;1.30;;;17.80;67.80;;;;;;4998380;28;20124;-79
2023/04/19 02:17:11;;;;;;;2.00;1.90;;;17.80;67.80;;;;;;5009795;28;20045;-79
2023/04/19 02:19:36;;;;;;;1.50;1.40;;;17.80;67.80;;;;;;4988529;28;20050;-80
2023/04/19 02:22:02;;;;;;;1.95;1.85;;;17.80;68.70;;;;;;5004557;28;20042;-79
2023/04/19 02:24:28;;;;;;;1.70;1.60;;;17.80;67.80;;;;;;5000063;28;20076;-80
2023/04/19 02:26:53;;;;;;;1.60;1.50;;;17.80;67.80;;;;;;4986908;28;20038;-80
2023/04/19 02:29:19;;;;;;;1.88;1.52;;;17.70;67.80;;;;;;5017529;28;20042;-80
2023/04/19 02:31:45;;;;;;;1.73;1.63;;;17.70;67.80;;;;;;4997593;28;20514;-79
2023/04/19 02:34:11;;;;;;;1.38;1.30;;;17.70;67.90;;;;;;5009687;28;20562;-80
2023/04/19 02:36:36;;;;;;;1.58;1.48;;;17.70;68.60;;;;;;4992840;28;20050;-80
2023/04/19 02:39:04;;;;;;;1.38;1.38;;;17.70;67.80;;;;;;4992814;28;20046;-80
2023/04/19 02:41:30;;;;;;;1.13;1.13;;;17.70;67.90;;;;;;5017029;28;20054;-80
2023/04/19 02:43:55;;;;;;;1.48;1.38;;;17.70;67.80;;;;;;4988563;28;20053;-80
2023/04/19 02:46:21;;;;;;;1.98;1.75;;;17.70;67.90;;;;;;4987811;28;20046;-80
2023/04/19 02:48:46;;;;;;;1.27;1.27;;;17.70;67.90;;;;;;4989337;28;20435;-79
2023/04/19 02:51:16;;;;;;;1.90;1.80;;;17.70;67.80;;;;;;4994923;28;20049;-80
2023/04/19 02:53:42;;;;;;;1.70;1.60;;;17.70;67.80;;;;;;5009711;28;20048;-80
2023/04/19 02:56:08;;;;;;;1.10;1.10;;;17.70;67.80;;;;;;5008655;28;20132;-79
2023/04/19 02:58:33;;;;;;;1.60;1.60;;;17.70;67.80;;;;;;5024922;28;20071;-79
2023/04/19 03:00:59;;;;;;;1.27;1.27;;;17.70;67.80;;;;;;4998028;28;20764;-79
2023/04/19 03:03:25;;;;;;;1.65;1.50;;;17.70;68.60;;;;;;5009098;28;20175;-82
2023/04/19 03:05:51;;;;;;;1.70;1.60;;;17.70;67.80;;;;;;5009945;28;20580;-80
2023/04/19 03:08:16;;;;;;;1.60;1.50;;;17.70;68.60;;;;;;4965019;28;20054;-81
2023/04/19 03:10:42;;;;;;;1.35;1.30;;;17.70;68.60;;;;;;4981219;28;20061;-80
2023/04/19 03:13:08;;;;;;;1.70;1.60;;;17.70;67.70;;;;;;4992192;28;20053;-79
2023/04/19 03:15:33;;;;;;;1.30;1.30;;;17.70;68.50;;;;;;4997413;28;20030;-80
2023/04/19 03:17:59;;;;;;;1.58;1.45;;;17.70;67.70;;;;;;4986853;28;20074;-79
2023/04/19 03:20:25;;;;;;;1.65;1.58;;;17.70;67.70;;;;;;4993649;28;20052;-80
2023/04/19 03:22:51;;;;;;;1.38;1.38;;;17.70;67.60;;;;;;4995221;28;20056;-80
2023/04/19 03:25:16;;;;;;;1.45;1.45;;;17.60;67.60;;;;;;4995753;28;20046;-80
2023/04/19 03:27:44;;;;;;;1.10;1.10;;;17.70;67.70;;;;;;4991342;28;20504;-80
2023/04/19 03:30:11;;;;;;;1.80;1.70;;;17.70;67.70;;;;;;4994688;28;20046;-80
2023/04/19 03:32:36;;;;;;;1.70;1.60;;;17.70;67.60;;;;;;4964813;28;20050;-81
2023/04/19 03:35:02;;;;;;;1.75;1.65;;;17.70;67.70;;;;;;4998766;28;20050;-79
2023/04/19 03:37:28;;;;;;;1.50;1.40;;;17.70;67.60;;;;;;5004330;28;20165;-80
2023/04/19 03:39:53;;;;;;;1.75;1.65;;;17.70;67.60;;;;;;4987438;28;20054;-79
2023/04/19 03:42:19;;;;;;;1.52;1.52;;;17.70;67.60;;;;;;4996641;28;20517;-79
2023/04/19 03:44:45;;;;;;;1.60;1.50;;;17.70;67.60;;;;;;4981808;28;20414;-79
2023/04/19 03:47:10;;;;;;;1.48;1.45;;;17.70;67.60;;;;;;5013627;28;20381;-79
2023/04/19 03:49:36;;;;;;;1.38;1.38;;;17.60;67.50;;;;;;5012344;28;20053;-79
2023/04/19 03:52:01;;;;;;;1.45;1.45;;;17.60;67.50;;;;;;5011828;28;20045;-79
2023/04/19 03:54:27;;;;;;;2.03;1.92;;;17.60;67.50;;;;;;5005087;28;20482;-79
2023/04/19 03:56:52;;;;;;;1.85;1.77;;;17.60;67.50;;;;;;4982106;28;20125;-79
2023/04/19 03:59:18;;;;;;;1.73;1.67;;;17.60;67.50;;;;;;4975093;28;20048;-79
2023/04/19 04:01:43;;;;;;;1.40;1.40;;;17.60;67.40;;;;;;4989620;28;20122;-80
2023/04/19 04:04:10;;;;;;;1.60;1.50;;;17.60;67.40;;;;;;4991484;28;20093;-80
2023/04/19 04:06:36;;;;;;;1.65;1.65;;;17.60;67.40;;;;;;5005192;28;20074;-80
2023/04/19 04:09:01;;;;;;;1.45;1.35;;;17.60;67.30;;;;;;4993589;28;20460;-79
2023/04/19 04:11:27;;;;;;;1.90;1.80;;;17.60;67.30;;;;;;5007291;28;20034;-79
2023/04/19 04:13:54;;;;;;;1.90;1.80;;;17.60;67.30;;;;;;4992148;28;20049;-79
2023/04/19 04:16:20;;;;;;;1.50;1.50;;;17.60;67.20;;;;;;4995252;28;20052;-79
2023/04/19 04:18:45;;;;;;;1.40;1.40;;;17.60;67.30;;;;;;4974799;28;20484;-80
2023/04/19 04:21:11;;;;;;;1.58;1.48;;;17.60;67.30;;;;;;4985152;28;20058;-79
2023/04/19 04:23:37;;;;;;;1.42;1.42;;;17.60;67.30;;;;;;4993229;28;20057;-79
2023/04/19 04:26:04;;;;;;;1.27;1.27;;;17.60;67.30;;;;;;4991741;28;20137;-79
2023/04/19 04:28:29;;;;;;;1.90;1.67;;;17.60;67.20;;;;;;4972741;28;20034;-80
2023/04/19 04:30:59;;;;;;;1.95;1.85;;;17.60;67.20;;;;;;4957814;28;20504;-79
2023/04/19 04:33:27;;;;;;;1.80;1.70;;;17.60;67.30;;;;;;5019977;28;20412;-79
2023/04/19 04:35:53;;;;;;;1.77;1.67;;;17.60;67.10;;;;;;4991893;28;20046;-79
2023/04/19 04:38:19;;;;;;;1.40;1.40;;;17.60;67.20;;;;;;5003223;28;20058;-80
2023/04/19 04:40:55;;;;;;;1.73;1.63;;;17.60;67.10;;;;;;4997441;28;20046;-80
2023/04/19 04:43:22;;;;;;;1.58;1.48;;;17.60;67.30;;;;;;4989409;28;20041;-80
2023/04/19 04:45:48;;;;;;;1.48;1.48;;;17.60;67.30;;;;;;4991735;28;20518;-81
2023/04/19 04:48:13;;;;;;;1.90;1.80;;;17.70;66.90;;;;;;4975268;28;20104;-79
2023/04/19 04:50:39;;;;;;;1.60;1.60;;;17.70;66.80;;;;;;5005678;28;20507;-78
2023/04/19 04:53:05;;;;;;;1.90;1.80;;;17.70;66.90;;;;;;4973271;28;20042;-78
2023/04/19 04:55:31;;;;;;;1.52;1.42;;;17.70;67.10;;;;;;4655326;28;9999640;-79
2023/04/19 04:57:56;;;;;;;1.70;1.60;;;17.70;67.20;;;;;;4994371;28;20451;-79
2023/04/19 05:00:22;;;;;;;1.90;1.80;;;17.70;67.10;;;;;;4995780;28;20129;-78
2023/04/19 05:02:48;;;;;;;1.75;1.65;;;17.70;67.10;;;;;;4987965;28;20088;-79
2023/04/19 05:05:13;;;;;;;1.60;1.50;;;17.70;67.00;;;;;;4996912;28;20072;-79
2023/04/19 05:07:39;;;;;;;1.65;1.58;;;17.60;67.10;;;;;;4994608;28;20562;-79
2023/04/19 05:10:06;;;;;;;1.65;1.55;;;17.60;66.90;;;;;;4977824;28;20038;-79
2023/04/19 05:12:31;;;;;;;2.22;2.13;;;17.60;66.70;;;;;;4985839;28;20385;-79
2023/04/19 05:14:57;;;;;;;2.30;2.20;;;17.60;66.90;;;;;;4985172;28;20088;-79
2023/04/19 05:17:23;;;;;;;2.03;1.92;;;17.70;67.10;;;;;;4999676;28;20041;-80
2023/04/19 05:19:48;;;;;;;1.65;1.55;;;17.60;67.30;;;;;;5007669;28;20038;-79
2023/04/19 05:22:14;;;;;;;1.90;1.80;;;17.70;67.30;;;;;;4946730;28;20132;-77
2023/04/19 05:24:40;;;;;;;1.80;1.70;;;17.70;66.90;;;;;;4988564;28;20037;-77
2023/04/19 05:27:05;;;;;;;2.10;2.00;;;17.70;66.90;;;;;;4995377;28;20061;-78
2023/04/19 05:29:31;;;;;;;8.43;2.15;;;17.60;66.90;;;;;;4975646;28;20153;-77
2023/04/19 05:31:57;;;;;;;1.88;1.77;;;17.60;67.00;;;;;;4975556;28;20050;-77
2023/04/19 05:34:23;;;;;;;1.92;1.50;;;17.60;67.00;;;;;;4955577;28;20046;-76
2023/04/19 05:36:48;;;;;;;2.00;1.90;;;17.60;66.90;;;;;;4970710;28;20046;-77
2023/04/19 05:39:14;;;;;;;1.77;1.67;;;17.60;66.80;;;;;;4984171;28;20046;-78
2023/04/19 05:41:39;;;;;;;1.35;1.35;;;17.70;66.70;;;;;;4988346;28;20489;-77
2023/04/19 05:44:05;;;;;;;2.03;1.92;;;17.70;67.20;;;;;;4986705;28;20042;-76
2023/04/19 05:46:31;;;;;;;1.30;1.30;;;17.70;66.90;;;;;;4975020;28;20039;-75
2023/04/19 05:48:57;;;;;;;1.40;1.40;;;17.70;67.50;;;;;;4967254;28;20503;-77
2023/04/19 05:51:22;;;;;;;2.00;1.90;;;17.70;67.40;;;;;;4968891;28;20048;-77
2023/04/19 05:53:48;;;;;;;1.83;1.73;;;17.70;67.80;;;;;;4977438;28;20073;-76
2023/04/19 05:56:14;;;;;;;1.63;1.50;;;17.70;67.90;;;;;;4984957;28;20133;-76
2023/04/19 05:58:39;;;;;;;1.73;1.63;;;17.70;67.40;;;;;;5000745;28;20089;-76
2023/04/19 06:01:05;;;;;;;2.47;1.77;;;17.80;67.60;;;;;;4967704;28;20034;-76
2023/04/19 06:03:32;;;;;;;1.67;1.40;;;17.70;67.80;;;;;;4987310;28;20034;-75
2023/04/19 06:05:58;;;;;;;1.80;1.70;;;17.70;68.00;;;;;;4986502;28;20137;-76
2023/04/19 06:08:23;;;;;;;2.28;2.03;;;17.70;67.90;;;;;;4953945;28;20056;-77
2023/04/19 06:10:49;;;;;;;1.60;1.50;;;17.70;67.70;;;;;;4955804;28;20555;-77
2023/04/19 06:13:15;;;;;;;2.95;1.38;;;17.70;67.80;;;;;;4972348;28;20133;-76
2023/04/19 06:15:40;;;;;;;1.65;1.55;;;17.70;68.20;;;;;;5000496;28;20045;-77
2023/04/19 06:18:09;;;;;;;3.53;1.55;;;17.80;68.20;;;;;;4975772;28;20046;-76
2023/04/19 06:20:37;;;;;;;2.30;1.80;;;17.70;68.10;;;;;;4995628;28;20136;-76
2023/04/19 06:23:03;;;;;;;1.77;1.67;;;17.80;68.50;;;;;;4992105;28;20042;-76
2023/04/19 06:25:29;;;;;;;2.10;2.00;;;17.70;68.40;;;;;;4989380;28;20150;-76
2023/04/19 06:27:54;;;;;;;2.17;1.95;;;17.70;68.60;;;;;;4989690;28;20145;-77
2023/04/19 06:30:20;;;;;;;8.70;1.75;;;17.70;68.60;;;;;;5008618;28;20107;-76
2023/04/19 06:32:45;;;;;;;1.88;1.55;;;17.70;68.50;;;;;;5010630;28;20522;-76
2023/04/19 06:35:11;;;;;;;1.63;1.58;;;17.70;68.50;;;;;;5009093;28;20099;-76
2023/04/19 06:37:37;;;;;;;1.65;1.55;;;17.70;68.60;;;;;;4996597;28;20054;-76
2023/04/19 06:40:07;;;;;;;1.70;1.60;;;17.70;68.60;;;;;;4989609;28;20042;-76
2023/04/19 06:42:33;;;;;;;1.80;1.60;;;17.70;68.50;;;;;;4990174;28;20050;-76
2023/04/19 06:44:59;;;;;;;3.33;1.80;;;17.70;68.50;;;;;;4991075;28;20046;-76
2023/04/19 06:47:25;;;;;;;2.95;1.52;;;17.70;68.50;;;;;;5008692;28;20108;-76
2023/04/19 06:49:50;;;;;;;2.00;1.60;;;17.70;68.50;;;;;;5009534;28;20049;-77
2023/04/19 06:52:16;;;;;;;1.98;1.85;;;17.70;68.30;;;;;;4993031;28;20057;-76
2023/04/19 06:54:41;;;;;;;3.05;1.75;;;17.70;68.30;;;;;;4974845;28;20120;-76
2023/04/19 06:57:09;;;;;;;1.85;1.73;;;17.70;68.30;;;;;;4995589;28;20458;-76
2023/04/19 06:59:38;;;;;;;2.00;1.90;;;17.70;68.30;;;;;;5013839;28;20049;-76
2023/04/19 07:02:04;;;;;;;1.90;1.80;;;17.70;68.30;;;;;;5012369;28;20068;-76
2023/04/19 07:04:30;;;;;;;1.88;1.77;;;17.70;68.20;;;;;;5003994;28;20069;-76
2023/04/19 07:06:55;;;;;;;2.10;2.00;;;17.70;68.30;;;;;;5005682;28;20506;-76
2023/04/19 07:09:21;;;;;;;1.65;1.58;;;17.70;68.20;;;;;;4993458;28;20395;-77
2023/04/19 07:11:47;;;;;;;1.92;1.83;;;17.70;69.10;;;;;;5008757;28;20045;-76
2023/04/19 07:14:12;;;;;;;2.08;1.70;;;17.70;69.00;;;;;;5004277;28;20046;-76
2023/04/19 07:16:38;;;;;;;2.00;1.90;;;17.70;68.10;;;;;;5013428;28;20593;-76
2023/04/19 07:19:04;;;;;;;2.10;2.00;;;17.70;68.20;;;;;;4995579;28;20046;-76
2023/04/19 07:21:32;;;;;;;2.10;2.00;;;17.70;68.40;;;;;;4994498;28;20559;-76
2023/04/19 07:23:58;;;;;;;1.70;1.52;;;17.70;68.20;;;;;;5003657;28;20495;-76
2023/04/19 07:26:23;;;;;;;2.05;1.95;;;17.70;68.10;;;;;;5012174;28;20095;-76
2023/04/19 07:28:49;;;;;;;1.80;1.70;;;17.70;68.30;;;;;;5008972;28;20050;-76
2023/04/19 07:31:18;;;;;;;1.75;1.65;;;17.70;68.30;;;;;;5012693;28;20515;-77
2023/04/19 07:33:43;;;;;;;1.98;1.88;;;17.70;68.20;;;;;;4987824;28;20038;-76
2023/04/19 07:36:09;;;;;;;1.98;1.88;;;17.70;68.20;;;;;;5009677;28;20046;-76
2023/04/19 07:38:35;;;;;;;1.73;1.63;;;17.70;68.20;;;;;;5002405;28;20100;-76
2023/04/19 07:41:00;;;;;;;1.80;1.70;;;17.70;68.30;;;;;;4996074;28;20038;-76
2023/04/19 07:43:26;;;;;;;2.00;1.90;;;17.70;68.30;;;;;;4996403;28;20056;-76
2023/04/19 07:45:52;;;;;;;2.25;2.15;;;17.70;68.20;;;;;;4991187;28;20078;-76
2023/04/19 07:48:18;;;;;;;1.73;1.63;;;17.70;68.30;;;;;;5011577;28;20133;-76
2023/04/19 07:50:43;;;;;;;2.05;1.95;;;17.70;69.00;;;;;;5013314;28;20050;-76
2023/04/19 07:53:09;;;;;;;3.30;1.70;;;17.70;68.30;;;;;;5011631;28;20042;-76
2023/04/19 07:55:35;;;;;;;1.92;1.83;;;17.70;68.20;;;;;;5011944;28;20280;-76
2023/04/19 07:58:01;;;;;;;1.83;1.73;;;17.80;68.20;;;;;;5012603;28;20041;-76
2023/04/19 08:00:28;;;;;;;1.48;1.38;;;17.80;68.20;;;;;;4995136;28;20112;-76
2023/04/19 08:02:55;;;;;;;1.42;1.42;;;17.80;68.20;;;;;;5013213;28;20048;-76
2023/04/19 08:05:21;;;;;;;1.88;1.70;;;17.80;68.30;;;;;;5011775;28;20057;-76
2023/04/19 08:07:47;;;;;;;1.75;1.65;;;17.80;68.10;;;;;;5003646;28;20046;-76
2023/04/19 08:10:12;;;;;;;1.83;1.73;;;17.80;68.20;;;;;;5002287;28;20121;-77
2023/04/19 08:12:38;;;;;;;1.80;1.70;;;17.80;68.10;;;;;;4992487;28;20871;-77
2023/04/19 08:15:06;;;;;;;2.08;1.98;;;17.80;68.00;;;;;;4993495;28;20034;-76
2023/04/19 08:17:33;;;;;;;1.60;1.50;;;17.80;67.90;;;;;;4998379;28;20041;-77
2023/04/19 08:19:59;;;;;;;2.10;2.00;;;17.90;67.90;;;;;;5017124;28;20041;-76
2023/04/19 08:22:24;;;;;;;1.70;1.70;;;17.90;67.70;;;;;;4997677;28;20042;-76
2023/04/19 08:24:50;;;;;;;1.90;1.80;;;17.90;67.80;;;;;;5011741;28;20069;-76
2023/04/19 08:27:16;;;;;;;1.50;1.40;;;17.90;67.60;;;;;;5010192;28;20046;-76
2023/04/19 08:29:42;;;;;;;1.55;1.55;;;17.90;67.80;;;;;;4985719;28;20053;-76
2023/04/19 08:32:07;;;;;;;1.42;1.42;;;18.00;67.80;;;;;;4988620;28;20050;-76
2023/04/19 08:34:37;;;;;;;1.77;1.67;;;18.00;67.80;;;;;;4992237;28;20411;-77
2023/04/19 08:37:03;;;;;;;1.35;1.35;;;18.00;67.80;;;;;;4992081;28;20507;-77
2023/04/19 08:39:29;;;;;;;1.83;1.73;;;18.00;67.80;;;;;;4990345;28;20049;-77
2023/04/19 08:41:58;;;;;;;2.00;1.48;;;18.00;67.80;;;;;;4993075;28;20474;-77
2023/04/19 08:44:24;;;;;;;1.67;1.58;;;18.00;67.80;;;;;;4991290;28;20057;-76
2023/04/19 08:46:49;;;;;;;1.83;1.73;;;18.10;67.90;;;;;;4991751;28;20035;-77
2023/04/19 08:49:15;;;;;;;1.70;1.60;;;18.00;67.80;;;;;;5009318;28;20076;-77
2023/04/19 08:51:41;;;;;;;1.50;1.50;;;18.10;67.80;;;;;;5006840;28;20038;-77
2023/04/19 08:54:06;;;;;;;1.60;1.50;;;18.10;67.80;;;;;;4974495;28;20038;-77
2023/04/19 08:56:32;;;;;;;1.77;1.67;;;18.10;67.70;;;;;;4991192;28;20049;-77
2023/04/19 08:58:58;;;;;;;1.58;1.50;;;18.10;67.60;;;;;;4991298;28;20397;-77
2023/04/19 09:01:23;;;;;;;1.70;1.60;;;18.10;67.60;;;;;;4990888;28;20439;-77
2023/04/19 09:03:49;;;;;;;1.88;1.77;;;18.10;67.60;;;;;;4991749;28;20038;-77
2023/04/19 09:06:15;;;;;;;1.67;1.67;;;18.20;67.50;;;;;;4991582;28;20133;-77
2023/04/19 09:08:41;;;;;;;1.60;1.60;;;18.20;67.50;;;;;;4989214;28;20053;-77
2023/04/19 09:11:06;;;;;;;1.70;1.60;;;18.20;67.40;;;;;;4984915;28;20061;-77
2023/04/19 09:13:32;;;;;;;1.80;1.70;;;18.20;67.20;;;;;;4973224;28;20053;-77
2023/04/19 09:16:03;;;;;;;1.60;1.50;;;18.30;67.10;;;;;;4991583;28;20423;-77
2023/04/19 09:18:29;;;;;;;1.80;1.70;;;18.30;67.00;;;;;;4979759;28;20046;-77
2023/04/19 09:20:57;;;;;;;1.80;1.70;;;18.30;66.80;;;;;;4998489;28;20467;-77
2023/04/19 09:23:24;;;;;;;1.92;1.70;;;18.30;66.70;;;;;;4992022;28;20050;-77
2023/04/19 09:25:56;;;;;;;2.10;2.00;;;18.30;66.60;;;;;;5001659;28;20050;-77
2023/04/19 09:28:22;;;;;;;1.85;1.75;;;18.30;66.50;;;;;;4990056;28;20124;-76
2023/04/19 09:30:47;;;;;;;1.67;1.58;;;18.40;66.30;;;;;;4991609;28;20074;-77
2023/04/19 09:33:13;;;;;;;1.90;1.80;;;18.40;66.30;;;;;;4989928;28;20117;-77
2023/04/19 09:35:40;;;;;;;2.05;1.95;;;18.40;66.10;;;;;;5004283;28;20503;-76
2023/04/19 09:38:06;;;;;;;1.98;1.88;;;18.40;66.10;;;;;;4982201;28;20038;-76
2023/04/19 09:40:31;;;;;;;1.58;1.58;;;18.40;66.00;;;;;;4990363;28;20049;-77
2023/04/19 09:42:57;;;;;;;1.73;1.70;;;18.50;66.10;;;;;;4971318;28;20034;-79
2023/04/19 09:45:22;;;;;;;1.70;1.60;;;18.50;66.00;;;;;;4969953;28;20519;-78
2023/04/19 09:48:02;;;;;;;1.60;1.60;;;18.50;65.90;;;;;;4976489;28;20042;-79
2023/04/19 09:50:28;;;;;;;1.63;1.63;;;18.50;65.90;;;;;;4989778;28;20153;-78
2023/04/19 09:52:53;;;;;;;1.80;1.70;;;18.50;66.00;;;;;;4989253;28;20150;-79
2023/04/19 09:55:19;;;;;;;1.70;1.60;;;18.50;65.90;;;;;;5023569;28;20042;-79
2023/04/19 09:57:44;;;;;;;1.90;1.80;;;18.50;66.00;;;;;;5004213;28;20050;-79
2023/04/19 10:00:13;;;;;;;1.42;1.42;;;18.60;66.00;;;;;;4990883;28;20098;-78
2023/04/19 10:02:38;;;;;;;1.70;1.60;;;18.60;66.00;;;;;;4989954;28;20073;-79
2023/04/19 10:05:05;;;;;;;1.80;1.70;;;18.60;66.00;;;;;;4960325;28;20507;-79
2023/04/19 10:07:31;;;;;;;1.80;1.73;;;18.60;65.90;;;;;;4988008;28;20042;-79
2023/04/19 10:09:57;;;;;;;1.90;1.80;;;18.60;65.90;;;;;;4968972;28;20080;-79
2023/04/19 10:12:25;;;;;;;1.80;1.70;;;18.60;65.90;;;;;;4991929;28;20130;-79
2023/04/19 10:14:51;;;;;;;1.67;1.58;;;18.70;65.90;;;;;;4984195;28;20047;-80
2023/04/19 10:17:16;;;;;;;1.90;1.80;;;18.70;65.90;;;;;;4966923;28;20038;-79
2023/04/19 10:19:42;;;;;;;1.80;1.70;;;18.70;66.00;;;;;;4971424;28;20046;-80
2023/04/19 10:22:07;;;;;;;1.60;1.60;;;18.70;65.90;;;;;;4985637;28;20041;-81
2023/04/19 10:24:33;;;;;;;1.55;1.52;;;18.70;65.80;;;;;;4980101;28;20504;-82
2023/04/19 10:27:11;;;;;;;2.80;2.05;;;18.80;65.80;;;;;;4988439;28;20078;-84
2023/04/19 10:29:55;;;;;;;3.90;2.00;;;18.80;66.30;;;;;;4987262;28;20046;-83
2023/04/19 10:32:23;;;;;;;2.25;2.15;;;18.80;66.60;;;;;;5003791;28;20428;-84
2023/04/19 10:34:50;;;;;;;3.83;2.80;;;18.90;67.50;;;;;;4977686;28;20042;-86
2023/04/19 10:37:16;;;;;;;3.78;3.47;;;18.90;67.30;;;;;;4984085;28;20496;-85
2023/04/19 10:39:44;;;;;;;3.58;3.25;;;18.80;67.30;;;;;;4997160;28;20053;-85
2023/04/19 10:42:10;;;;;;;3.15;2.80;;;18.80;67.20;;;;;;4971771;28;20054;-85
2023/04/19 10:44:35;;;;;;;4.10;3.80;;;18.80;67.10;;;;;;4992215;28;20058;-81
2023/04/19 10:47:01;;;;;;;4.40;4.10;;;18.80;67.50;;;;;;4985896;28;20042;-81
2023/04/19 10:49:30;;;;;;;4.47;4.28;;;18.80;68.60;;;;;;4981730;28;20523;-82
2023/04/19 10:51:56;;;;;;;4.57;4.32;;;18.90;68.80;;;;;;4985668;28;20049;-82
2023/04/19 10:54:32;;;;;;;4.40;4.20;;;18.80;67.50;;;;;;4986152;28;20046;-81
2023/04/19 10:56:58;;;;;;;4.47;4.28;;;18.80;66.80;;;;;;4642886;28;10000808;-82
2023/04/19 10:59:24;;;;;;;4.90;4.60;;;18.90;66.80;;;;;;4983785;28;20166;-83
2023/04/19 11:01:57;;;;;;;4.57;4.28;;;18.90;66.60;;;;;;4983762;28;20524;-83
2023/04/19 11:04:45;;;;;;;4.22;3.95;;;18.90;66.60;;;;;;4982957;28;20133;-84
2023/04/19 11:07:10;;;;;;;3.63;3.42;;;18.80;66.60;;;;;;4977450;28;20089;-83
2023/04/19 11:09:37;;;;;;;4.20;3.83;;;18.90;66.60;;;;;;4986547;28;20870;-82
2023/04/19 11:12:09;;;;;;;3.72;3.53;;;18.90;66.70;;;;;;4987104;28;20141;-83
2023/04/19 11:14:36;;;;;;;3.65;3.45;;;18.90;66.80;;;;;;4982831;28;20046;-85
2023/04/19 11:17:24;;;;;;;3.90;3.70;;;18.90;66.70;;;;;;4987861;28;20411;-79
2023/04/19 11:20:07;;;;;;;3.60;3.40;;;18.90;66.60;;;;;;4999980;28;20451;-80
2023/04/19 11:22:33;;;;;;;4.20;3.92;;;19.00;66.60;;;;;;4998775;28;20038;-79
2023/04/19 11:25:11;;;;;;;4.00;3.65;;;19.00;66.40;;;;;;5005911;28;20054;-79
2023/04/19 11:27:37;;;;;;;3.78;3.58;;;19.00;66.50;;;;;;5007667;28;20046;-79
2023/04/19 11:30:10;;;;;;;3.53;3.40;;;19.00;66.40;;;;;;4953827;28;20065;-80
2023/04/19 11:32:35;;;;;;;3.28;3.17;;;19.00;66.40;;;;;;4993150;28;20521;-79
2023/04/19 11:35:06;;;;;;;3.85;3.65;;;19.00;66.30;;;;;;4991094;28;20042;-80
2023/04/19 11:37:33;;;;;;;4.07;3.78;;;19.00;66.30;;;;;;4966579;28;20504;-79
2023/04/19 11:39:59;;;;;;;3.33;3.13;;;19.00;66.30;;;;;;4990125;28;20042;-80
2023/04/19 11:42:24;;;;;;;3.20;3.10;;;19.10;66.40;;;;;;4993237;28;20050;-78
2023/04/19 11:44:50;;;;;;;3.17;3.08;;;19.00;66.30;;;;;;4980752;28;20046;-79
2023/04/19 11:47:16;;;;;;;3.60;3.38;;;19.00;66.30;;;;;;5002215;28;20045;-79
2023/04/19 11:49:42;;;;;;;2.90;2.80;;;19.00;66.40;;;;;;4979101;28;20073;-79
2023/04/19 11:52:07;;;;;;;3.53;3.33;;;19.00;66.40;;;;;;5029501;28;20053;-79
2023/04/19 11:54:33;;;;;;;3.20;3.00;;;19.00;66.40;;;;;;4978140;28;20531;-78
2023/04/19 11:57:07;;;;;;;3.78;3.58;;;19.00;66.40;;;;;;5013124;28;20042;-78
2023/04/19 11:59:34;;;;;;;3.88;3.67;;;19.00;66.30;;;;;;5012070;28;20042;-77
2023/04/19 12:02:10;;;;;;;3.80;3.55;;;19.00;66.80;;;;;;5027751;28;20100;-78
2023/04/19 12:04:36;;;;;;;3.83;3.63;;;19.00;66.50;;;;;;4994073;28;20061;-76
2023/04/19 12:07:02;;;;;;;3.83;3.58;;;19.00;66.60;;;;;;5012525;28;20041;-77
2023/04/19 12:09:28;;;;;;;3.75;3.55;;;19.00;66.40;;;;;;4993753;28;20541;-77
2023/04/19 12:11:53;;;;;;;3.17;3.08;;;19.10;66.50;;;;;;4979319;28;20042;-78
2023/04/19 12:14:21;;;;;;;3.42;3.13;;;19.10;66.40;;;;;;4649116;28;10000271;-80
2023/04/19 12:17:06;;;;;;;3.30;3.10;;;19.10;66.50;;;;;;4656183;28;9999719;-79
2023/04/19 12:19:43;;;;;;;5.50;3.42;;;19.10;66.50;;;;;;4996847;28;20050;-79
2023/04/19 12:22:10;;;;;;;3.28;3.08;;;19.10;66.70;;;;;;5008839;28;20034;-79
2023/04/19 12:24:37;;;;;;;3.33;3.13;;;19.10;66.60;;;;;;4995786;28;20054;-80
2023/04/19 12:27:02;;;;;;;3.55;3.45;;;19.10;66.80;;;;;;4989036;28;20042;-81
2023/04/19 12:29:28;;;;;;;3.58;3.30;;;19.00;66.70;;;;;;4967713;28;20054;-80
2023/04/19 12:31:53;;;;;;;2.90;2.67;;;19.10;66.80;;;;;;4989725;28;20078;-79
2023/04/19 12:34:19;;;;;;;3.00;2.80;;;19.10;66.70;;;;;;4971410;28;20447;-79
2023/04/19 12:36:45;;;;;;;2.78;2.67;;;19.00;66.40;;;;;;4948785;28;20054;-78
2023/04/19 12:39:10;;;;;;;3.40;3.10;;;19.10;66.40;;;;;;4979320;28;21277;-78
2023/04/19 12:41:36;;;;;;;2.92;2.83;;;19.20;66.00;;;;;;4997064;28;20054;-78